Time;durP1;ratioP1;P1;durP2;ratioP2;P2;SDS_P1;SDS_P2;PMS_P1;PMS_P2;Temp;Humidity;BMP_temperature;BMP_pressure;BME280_temperature;BME280_humidity;BME280_pressure;Samples;Min_cycle;Max_cycle;Signal;HPM_P1;HPM_P2
2022/08/31 00:05:25;;;;;;;4.80;2.50;;;20.80;98.00;;;;;;5031018;28;20543;-68
2022/08/31 00:07:52;;;;;;;4.17;2.57;;;20.80;98.00;;;;;;5013480;28;20486;-68
2022/08/31 00:10:20;;;;;;;4.13;2.43;;;20.90;98.00;;;;;;5030903;28;20461;-68
2022/08/31 00:12:49;;;;;;;5.73;3.13;;;20.80;98.00;;;;;;5030811;28;20458;-68
2022/08/31 00:15:20;;;;;;;3.50;2.40;;;20.90;98.00;;;;;;5030715;28;20466;-68
2022/08/31 00:17:50;;;;;;;4.70;2.70;;;20.90;98.00;;;;;;5030541;28;20469;-68
2022/08/31 00:20:20;;;;;;;4.60;2.83;;;21.00;98.00;;;;;;5030805;28;20461;-68
2022/08/31 00:22:47;;;;;;;4.43;2.70;;;21.10;98.00;;;;;;5030801;28;20454;-68
2022/08/31 00:25:14;;;;;;;4.77;2.87;;;21.00;98.00;;;;;;5013123;28;20462;-68
2022/08/31 00:27:42;;;;;;;5.23;3.10;;;21.00;98.00;;;;;;5030651;28;20487;-68
2022/08/31 00:30:12;;;;;;;5.00;2.97;;;20.80;98.00;;;;;;5012965;28;20462;-68
2022/08/31 00:32:39;;;;;;;7.30;2.83;;;20.60;98.00;;;;;;5030744;28;20458;-68
2022/08/31 00:35:09;;;;;;;5.47;3.03;;;20.70;98.00;;;;;;5030518;28;20462;-68
2022/08/31 00:37:36;;;;;;;4.40;2.80;;;20.60;98.00;;;;;;5030564;28;20809;-68
2022/08/31 00:40:04;;;;;;;5.83;3.10;;;20.50;98.00;;;;;;5030477;28;20469;-68
2022/08/31 00:42:31;;;;;;;5.33;2.60;;;20.50;98.00;;;;;;5030502;28;20459;-68
2022/08/31 00:44:58;;;;;;;3.83;2.70;;;20.50;98.00;;;;;;5031754;28;20451;-68
2022/08/31 00:47:25;;;;;;;4.47;3.10;;;20.40;98.00;;;;;;5016502;28;20494;-68
2022/08/31 00:49:53;;;;;;;5.20;2.87;;;20.30;98.00;;;;;;5016472;28;20462;-68
2022/08/31 00:52:27;;;;;;;6.47;3.20;;;20.40;98.00;;;;;;5016684;28;20488;-68
2022/08/31 00:54:58;;;;;;;4.47;2.60;;;20.40;98.00;;;;;;5034058;28;20486;-68
2022/08/31 00:57:30;;;;;;;4.77;2.97;;;20.40;98.00;;;;;;5034133;28;20458;-68
2022/08/31 00:59:58;;;;;;;3.30;2.77;;;20.40;98.00;;;;;;5016062;28;20459;-68
2022/08/31 01:02:26;;;;;;;4.30;2.53;;;20.50;98.00;;;;;;5033871;28;20459;-68
2022/08/31 01:04:53;;;;;;;5.67;3.00;;;20.50;98.00;;;;;;5016299;28;20474;-68
2022/08/31 01:07:23;;;;;;;5.20;2.93;;;20.40;98.00;;;;;;5033546;28;20554;-68
2022/08/31 01:09:50;;;;;;;3.00;2.63;;;20.40;98.00;;;;;;5033680;28;20534;-68
2022/08/31 01:12:18;;;;;;;4.83;3.07;;;20.50;98.00;;;;;;5033594;28;20467;-68
2022/08/31 01:14:45;;;;;;;3.80;2.87;;;20.40;98.00;;;;;;5033565;28;20458;-68
2022/08/31 01:17:12;;;;;;;5.03;2.87;;;20.40;98.00;;;;;;5033454;28;20454;-68
2022/08/31 01:19:45;;;;;;;4.47;2.50;;;20.30;98.00;;;;;;5015931;28;20447;-68
2022/08/31 01:22:19;;;;;;;5.20;3.00;;;20.40;98.00;;;;;;5015670;28;21036;-68
2022/08/31 01:24:50;;;;;;;7.73;3.37;;;20.60;98.00;;;;;;5033303;28;20462;-68
2022/08/31 01:27:23;;;;;;;4.80;2.80;;;20.60;98.00;;;;;;5033390;28;20490;-68
2022/08/31 01:29:50;;;;;;;4.03;2.70;;;20.80;98.00;;;;;;5033240;28;20459;-68
2022/08/31 01:32:18;;;;;;;4.17;2.67;;;20.70;98.00;;;;;;5033127;28;20459;-68
2022/08/31 01:34:45;;;;;;;6.57;3.27;;;20.70;98.00;;;;;;5032946;28;20517;-68
2022/08/31 01:37:13;;;;;;;3.00;2.33;;;20.60;98.00;;;;;;5033062;28;20462;-68
2022/08/31 01:39:40;;;;;;;5.47;3.17;;;20.60;98.00;;;;;;5033075;28;20461;-68
2022/08/31 01:42:09;;;;;;;4.17;2.90;;;20.50;98.00;;;;;;5033110;28;20459;-68
2022/08/31 01:44:36;;;;;;;5.20;3.03;;;20.40;98.00;;;;;;5015251;28;20533;-68
2022/08/31 01:47:04;;;;;;;3.90;2.90;;;20.30;98.00;;;;;;5032878;28;20462;-68
2022/08/31 01:49:31;;;;;;;4.33;3.00;;;20.40;98.00;;;;;;5032902;28;20473;-68
2022/08/31 01:51:59;;;;;;;4.50;2.80;;;20.40;98.00;;;;;;5033107;28;20451;-68
2022/08/31 01:54:27;;;;;;;4.50;2.90;;;20.40;98.00;;;;;;5033015;28;20465;-68
2022/08/31 01:56:54;;;;;;;4.77;3.10;;;20.50;98.00;;;;;;5032462;28;20454;-68
2022/08/31 01:59:25;;;;;;;3.97;2.80;;;20.50;98.00;;;;;;5032678;28;20467;-68
2022/08/31 02:01:55;;;;;;;6.80;3.20;;;20.50;98.00;;;;;;5015184;28;20465;-68
2022/08/31 02:04:25;;;;;;;4.73;2.83;;;20.50;98.00;;;;;;5032652;28;20516;-68
2022/08/31 02:06:54;;;;;;;6.03;2.90;;;20.40;98.00;;;;;;5032005;28;20462;-68
2022/08/31 02:09:23;;;;;;;4.10;2.60;;;20.50;98.00;;;;;;5032623;28;20460;-68
2022/08/31 02:11:51;;;;;;;5.30;2.90;;;20.50;98.00;;;;;;5014759;28;20469;-68
2022/08/31 02:14:19;;;;;;;6.13;3.37;;;20.60;98.00;;;;;;5032402;28;20462;-68
2022/08/31 02:16:51;;;;;;;6.27;2.90;;;20.70;98.00;;;;;;5032545;28;20458;-68
2022/08/31 02:19:19;;;;;;;6.20;3.43;;;20.70;98.00;;;;;;5032679;28;20455;-68
2022/08/31 02:24:14;;;;;;;3.53;2.53;;;20.50;98.00;;;;;;5050635;28;20473;-69
2022/08/31 02:26:41;;;;;;;4.37;2.97;;;20.50;98.00;;;;;;5052158;28;20458;-69
2022/08/31 02:29:08;;;;;;;4.20;2.93;;;20.60;98.00;;;;;;5051894;28;20579;-69
2022/08/31 02:31:36;;;;;;;5.13;3.00;;;20.60;98.00;;;;;;5052063;28;20464;-69
2022/08/31 02:34:05;;;;;;;5.70;2.80;;;20.70;98.00;;;;;;5051901;28;20462;-69
2022/08/31 02:36:33;;;;;;;4.87;2.73;;;20.70;98.00;;;;;;5052184;28;20849;-69
2022/08/31 02:39:00;;;;;;;3.43;2.57;;;20.80;98.00;;;;;;5034275;28;20445;-69
2022/08/31 02:41:27;;;;;;;4.00;2.90;;;20.70;98.00;;;;;;5034296;28;20472;-69
2022/08/31 02:43:55;;;;;;;5.27;3.23;;;20.60;98.00;;;;;;5051856;28;20458;-69
2022/08/31 02:46:22;;;;;;;5.03;2.87;;;20.60;98.00;;;;;;5052016;28;20489;-69
2022/08/31 02:48:49;;;;;;;5.57;3.10;;;20.50;98.00;;;;;;5051726;28;20485;-69
2022/08/31 02:51:18;;;;;;;4.67;2.90;;;20.40;98.00;;;;;;5051976;28;20453;-69
2022/08/31 02:53:45;;;;;;;5.83;2.60;;;20.40;98.00;;;;;;5051485;28;20456;-68
2022/08/31 02:56:13;;;;;;;4.97;2.87;;;20.30;98.00;;;;;;5051643;28;20462;-68
2022/08/31 02:58:41;;;;;;;3.60;2.40;;;20.30;98.00;;;;;;5051492;28;20956;-68
2022/08/31 03:01:08;;;;;;;5.73;3.40;;;20.30;98.00;;;;;;5033831;28;20453;-68
2022/08/31 03:03:36;;;;;;;5.80;3.30;;;20.30;98.00;;;;;;5051405;28;20465;-69
2022/08/31 03:06:04;;;;;;;4.67;2.80;;;20.30;98.00;;;;;;5051406;28;20476;-66
2022/08/31 03:08:34;;;;;;;4.57;2.70;;;20.40;98.00;;;;;;5032931;28;20543;-66
2022/08/31 03:11:01;;;;;;;3.87;2.53;;;20.40;98.00;;;;;;5051317;28;20457;-65
2022/08/31 03:13:28;;;;;;;7.57;3.23;;;20.40;98.00;;;;;;5051157;28;20453;-65
2022/08/31 03:15:56;;;;;;;3.90;2.53;;;20.40;98.00;;;;;;5051456;28;20891;-65
2022/08/31 03:18:23;;;;;;;4.33;2.70;;;20.50;98.00;;;;;;5051176;28;20450;-65
2022/08/31 03:20:51;;;;;;;4.20;2.63;;;20.70;98.00;;;;;;5033571;28;20978;-65
2022/08/31 03:23:18;;;;;;;6.17;3.30;;;20.70;98.00;;;;;;5051058;28;20548;-66
2022/08/31 03:25:46;;;;;;;5.43;2.93;;;20.60;98.00;;;;;;5051035;28;20804;-65
2022/08/31 03:28:14;;;;;;;4.10;2.70;;;20.60;98.00;;;;;;5051028;28;20485;-65
2022/08/31 03:30:42;;;;;;;6.00;3.23;;;20.60;98.00;;;;;;5033718;28;20508;-65
2022/08/31 03:33:09;;;;;;;3.57;2.30;;;20.60;98.00;;;;;;5051141;28;20469;-65
2022/08/31 03:35:42;;;;;;;4.53;3.23;;;20.40;98.00;;;;;;5050792;28;20460;-65
2022/08/31 03:38:11;;;;;;;3.30;2.53;;;20.40;98.00;;;;;;5051158;28;20445;-66
2022/08/31 03:40:38;;;;;;;3.70;2.60;;;20.40;98.00;;;;;;5051163;28;20453;-65
2022/08/31 03:43:10;;;;;;;4.33;3.03;;;20.40;98.00;;;;;;5051162;28;20461;-65
2022/08/31 03:45:40;;;;;;;4.07;2.70;;;20.40;98.00;;;;;;5051114;28;20457;-65
2022/08/31 03:48:07;;;;;;;3.33;2.50;;;20.30;98.00;;;;;;5050840;28;20489;-65
2022/08/31 03:50:35;;;;;;;4.10;2.67;;;20.40;98.00;;;;;;5051019;28;20454;-65
2022/08/31 03:53:04;;;;;;;5.10;2.87;;;20.40;98.00;;;;;;5050780;28;20458;-65
2022/08/31 03:55:34;;;;;;;4.30;2.70;;;20.30;98.00;;;;;;5050845;28;20453;-65
2022/08/31 03:58:01;;;;;;;4.17;2.30;;;20.30;98.00;;;;;;5050621;28;20478;-65
2022/08/31 04:00:30;;;;;;;5.93;2.60;;;20.20;98.00;;;;;;5050813;28;20469;-65
2022/08/31 04:02:58;;;;;;;4.63;2.60;;;20.20;98.00;;;;;;5050795;28;20907;-65
2022/08/31 04:05:26;;;;;;;4.90;2.90;;;20.10;98.00;;;;;;5050695;28;20454;-65
2022/08/31 04:07:54;;;;;;;4.13;2.60;;;20.10;98.00;;;;;;5050610;28;20478;-65
2022/08/31 04:10:21;;;;;;;4.30;2.70;;;20.10;98.00;;;;;;5033222;28;20461;-65
2022/08/31 04:12:49;;;;;;;5.17;3.03;;;20.10;98.00;;;;;;5050756;28;20996;-65
2022/08/31 04:15:18;;;;;;;4.90;3.00;;;20.20;98.00;;;;;;5050603;28;20461;-65
2022/08/31 04:17:49;;;;;;;4.13;2.80;;;20.10;98.00;;;;;;5050706;28;20473;-66
2022/08/31 04:20:17;;;;;;;6.43;2.67;;;20.10;98.00;;;;;;5053937;28;20459;-66
2022/08/31 04:22:44;;;;;;;5.57;2.80;;;20.10;98.00;;;;;;5054468;28;21010;-65
2022/08/31 04:25:11;;;;;;;3.23;2.50;;;20.20;98.00;;;;;;5054665;28;20499;-65
2022/08/31 04:27:48;;;;;;;4.40;2.83;;;20.10;98.00;;;;;;5054861;28;20835;-65
2022/08/31 04:35:17;;;;;;;5.10;3.00;;;20.10;98.00;;;;;;5053284;28;20556;-65
2022/08/31 04:37:44;;;;;;;6.03;3.10;;;20.10;98.00;;;;;;5054336;28;20457;-65
2022/08/31 04:40:18;;;;;;;4.40;2.70;;;20.10;98.00;;;;;;5054159;28;20971;-65
2022/08/31 04:42:45;;;;;;;4.50;2.80;;;20.10;98.00;;;;;;5054356;28;20457;-65
2022/08/31 04:45:13;;;;;;;5.73;3.13;;;20.10;98.00;;;;;;5054186;28;20497;-65
2022/08/31 04:47:41;;;;;;;5.60;3.03;;;20.10;98.00;;;;;;5054109;28;20457;-65
2022/08/31 04:50:09;;;;;;;5.23;2.80;;;20.00;98.00;;;;;;5053727;28;20481;-65
2022/08/31 04:52:38;;;;;;;4.97;3.00;;;19.90;98.00;;;;;;5053992;28;20466;-65
2022/08/31 04:55:06;;;;;;;4.97;2.90;;;19.90;98.00;;;;;;5053762;28;20486;-65
2022/08/31 04:57:34;;;;;;;4.93;2.90;;;20.00;98.00;;;;;;5053913;28;20461;-65
2022/08/31 05:00:05;;;;;;;4.67;3.10;;;20.10;98.00;;;;;;5053955;28;20446;-67
2022/08/31 05:02:33;;;;;;;6.10;2.93;;;20.20;98.00;;;;;;5036600;28;20460;-66
2022/08/31 05:05:00;;;;;;;5.07;2.90;;;20.30;98.00;;;;;;5053589;28;20467;-66
2022/08/31 05:07:27;;;;;;;5.43;3.00;;;20.20;98.00;;;;;;5053768;28;20896;-66
2022/08/31 05:09:56;;;;;;;4.27;3.00;;;20.30;98.00;;;;;;5053389;28;20485;-67
2022/08/31 05:12:24;;;;;;;3.80;2.40;;;20.20;98.00;;;;;;5053676;28;20469;-68
2022/08/31 05:14:52;;;;;;;4.20;2.70;;;20.20;98.00;;;;;;5053383;28;20462;-67
2022/08/31 05:17:20;;;;;;;5.30;3.00;;;20.20;98.00;;;;;;5053439;28;20464;-67
2022/08/31 05:19:47;;;;;;;4.40;2.97;;;20.20;98.00;;;;;;5053263;28;20966;-68
2022/08/31 05:22:18;;;;;;;5.27;2.83;;;20.30;98.00;;;;;;5053392;28;20461;-69
2022/08/31 05:24:46;;;;;;;4.50;2.67;;;20.30;98.00;;;;;;5053176;28;20465;-68
2022/08/31 05:27:15;;;;;;;5.37;2.93;;;20.40;98.00;;;;;;5053259;28;20838;-68
2022/08/31 05:29:42;;;;;;;5.00;2.80;;;20.30;98.00;;;;;;5052920;28;20846;-68
2022/08/31 05:32:09;;;;;;;4.80;3.20;;;20.30;98.00;;;;;;5052752;28;20464;-68
2022/08/31 05:34:37;;;;;;;6.03;3.03;;;20.30;98.00;;;;;;5053026;28;20457;-68
2022/08/31 05:37:04;;;;;;;4.77;2.63;;;20.20;98.00;;;;;;5035577;28;20457;-68
2022/08/31 05:39:32;;;;;;;5.70;2.90;;;20.20;98.00;;;;;;5052871;28;20990;-69
2022/08/31 05:42:00;;;;;;;6.03;3.43;;;20.20;98.00;;;;;;5053340;28;20798;-68
2022/08/31 05:44:28;;;;;;;4.60;2.80;;;20.20;98.00;;;;;;5052903;28;20457;-69
2022/08/31 05:46:56;;;;;;;5.63;3.27;;;20.00;98.00;;;;;;5052966;28;20940;-69
2022/08/31 05:49:23;;;;;;;4.53;2.83;;;20.10;98.00;;;;;;5052761;28;21006;-69
2022/08/31 05:51:50;;;;;;;6.20;3.30;;;20.00;98.00;;;;;;5052759;28;20458;-69
2022/08/31 05:54:19;;;;;;;5.83;2.93;;;20.00;98.00;;;;;;5052749;28;20465;-69
2022/08/31 05:56:46;;;;;;;5.83;3.27;;;19.90;98.00;;;;;;5052736;28;20454;-67
2022/08/31 05:59:13;;;;;;;4.93;2.70;;;19.90;98.00;;;;;;5052716;28;20460;-66
2022/08/31 06:01:43;;;;;;;7.13;3.17;;;19.90;98.00;;;;;;5052346;28;20469;-67
2022/08/31 06:04:11;;;;;;;4.77;2.93;;;19.90;98.00;;;;;;5034632;28;20840;-67
2022/08/31 06:06:39;;;;;;;4.60;2.87;;;20.00;98.00;;;;;;5034759;28;20468;-67
2022/08/31 06:09:07;;;;;;;6.70;3.20;;;20.00;98.00;;;;;;5052242;28;20486;-67
2022/08/31 06:11:37;;;;;;;5.40;3.10;;;20.00;98.00;;;;;;5052231;28;20464;-67
2022/08/31 06:14:06;;;;;;;5.37;2.90;;;20.00;98.00;;;;;;5052232;28;20450;-67
2022/08/31 06:16:34;;;;;;;3.87;2.60;;;20.00;98.00;;;;;;5052227;28;20462;-66
2022/08/31 06:19:06;;;;;;;4.33;2.77;;;20.10;98.00;;;;;;5052051;28;20457;-67
2022/08/31 06:21:35;;;;;;;4.60;2.90;;;20.20;98.00;;;;;;5052386;28;20967;-67
2022/08/31 06:24:04;;;;;;;5.33;3.47;;;20.30;98.00;;;;;;5052181;28;20465;-67
2022/08/31 06:26:34;;;;;;;5.50;2.83;;;20.10;98.00;;;;;;5052193;28;20476;-67
2022/08/31 06:29:08;;;;;;;4.20;2.53;;;19.90;98.00;;;;;;5051794;28;20489;-67
2022/08/31 06:31:37;;;;;;;4.57;2.93;;;19.80;98.00;;;;;;5052237;28;20544;-67
2022/08/31 06:34:07;;;;;;;5.43;3.17;;;19.90;98.00;;;;;;5051802;28;20476;-66
2022/08/31 06:36:34;;;;;;;6.13;3.40;;;19.90;98.00;;;;;;5051995;28;20453;-66
2022/08/31 06:39:03;;;;;;;5.43;2.97;;;19.90;98.00;;;;;;5051704;28;20469;-67
2022/08/31 06:41:33;;;;;;;4.00;2.63;;;19.90;98.00;;;;;;5052106;28;20970;-67
2022/08/31 06:44:02;;;;;;;4.00;2.67;;;20.00;98.00;;;;;;5051917;28;20462;-66
2022/08/31 06:46:31;;;;;;;4.13;2.77;;;20.00;98.00;;;;;;5051589;28;21032;-67
2022/08/31 06:48:58;;;;;;;5.90;3.07;;;20.10;98.00;;;;;;5051452;28;20482;-67
2022/08/31 06:51:28;;;;;;;5.53;3.10;;;20.30;98.00;;;;;;5051766;28;20458;-66
2022/08/31 06:53:55;;;;;;;8.60;3.30;;;20.40;98.00;;;;;;5051540;28;20453;-66
2022/08/31 06:56:25;;;;;;;6.90;3.70;;;20.40;98.00;;;;;;5051693;28;20818;-67
2022/08/31 06:58:53;;;;;;;5.17;3.00;;;20.40;98.00;;;;;;5051410;28;20958;-67
2022/08/31 07:01:25;;;;;;;4.30;2.80;;;20.40;98.00;;;;;;5033560;28;20938;-67
2022/08/31 07:03:53;;;;;;;6.60;3.70;;;20.40;98.00;;;;;;5051253;28;20465;-67
2022/08/31 07:06:23;;;;;;;5.30;3.20;;;20.30;98.00;;;;;;5043247;28;20462;-66
2022/08/31 07:08:55;;;;;;;5.60;3.20;;;20.10;98.00;;;;;;5064987;28;20483;-66
2022/08/31 07:11:25;;;;;;;3.93;2.60;;;20.20;98.00;;;;;;5057740;28;20966;-67
2022/08/31 07:13:55;;;;;;;3.70;2.70;;;20.20;98.00;;;;;;5058408;28;20456;-66
2022/08/31 07:16:24;;;;;;;5.87;3.40;;;20.20;98.00;;;;;;5059251;28;20453;-67
2022/08/31 07:18:53;;;;;;;3.80;2.80;;;20.00;98.00;;;;;;5057273;28;20462;-67
2022/08/31 07:21:22;;;;;;;7.30;3.97;;;20.00;98.00;;;;;;5057803;28;20453;-67
2022/08/31 07:23:54;;;;;;;5.27;2.80;;;20.00;98.00;;;;;;5050381;28;20448;-70
2022/08/31 07:26:24;;;;;;;3.57;2.80;;;20.00;98.00;;;;;;5067013;28;20465;-67
2022/08/31 07:28:53;;;;;;;5.37;3.13;;;20.10;98.00;;;;;;5066394;28;20939;-67
2022/08/31 07:31:22;;;;;;;4.73;3.20;;;20.30;98.00;;;;;;5049215;28;20458;-67
2022/08/31 07:33:50;;;;;;;4.30;2.80;;;20.30;98.00;;;;;;5058280;28;20470;-67
2022/08/31 07:36:17;;;;;;;5.93;3.20;;;20.40;98.00;;;;;;5048278;28;20455;-67
2022/08/31 07:44:18;;;;;;;4.53;2.93;;;20.50;98.00;;;;;;5053991;28;20449;-67
2022/08/31 07:46:48;;;;;;;4.47;2.93;;;20.50;98.00;;;;;;5062245;28;20457;-67
2022/08/31 07:49:16;;;;;;;9.10;3.43;;;20.50;98.00;;;;;;5056337;28;20572;-68
2022/08/31 07:51:49;;;;;;;3.93;2.87;;;20.30;98.00;;;;;;5058279;28;20520;-66
2022/08/31 07:54:19;;;;;;;5.37;3.77;;;20.10;98.00;;;;;;5051121;28;20459;-66
2022/08/31 07:56:50;;;;;;;5.30;2.93;;;20.20;98.00;;;;;;5065905;28;20793;-66
2022/08/31 07:59:20;;;;;;;7.53;3.80;;;20.30;98.00;;;;;;5060153;28;20468;-66
2022/08/31 08:01:48;;;;;;;7.33;3.33;;;20.40;98.00;;;;;;5065357;28;20472;-67
2022/08/31 08:04:24;;;;;;;5.33;3.00;;;20.30;98.00;;;;;;5054339;28;20523;-67
2022/08/31 08:06:54;;;;;;;4.53;2.93;;;20.20;98.00;;;;;;5057804;28;20468;-67
2022/08/31 08:09:22;;;;;;;6.37;3.60;;;20.30;98.00;;;;;;5069804;28;20661;-67
2022/08/31 08:11:54;;;;;;;6.33;3.80;;;20.20;98.00;;;;;;5054905;28;20556;-66
2022/08/31 08:14:21;;;;;;;6.77;3.37;;;20.30;98.00;;;;;;5062394;28;20448;-66
2022/08/31 08:16:48;;;;;;;4.83;3.17;;;20.30;98.00;;;;;;5056195;28;20449;-67
2022/08/31 08:19:16;;;;;;;6.17;3.20;;;20.30;98.00;;;;;;5061523;28;20461;-67
2022/08/31 08:21:44;;;;;;;6.70;3.53;;;20.30;98.00;;;;;;5069155;28;20539;-67
2022/08/31 08:24:13;;;;;;;5.10;3.10;;;20.20;98.00;;;;;;5055205;28;20501;-67
2022/08/31 08:26:44;;;;;;;5.30;3.43;;;20.10;98.00;;;;;;5061699;28;20457;-67
2022/08/31 08:29:13;;;;;;;6.47;3.27;;;20.20;98.00;;;;;;5069589;28;20468;-67
2022/08/31 08:31:41;;;;;;;5.07;3.00;;;20.30;98.00;;;;;;5061744;28;20459;-66
2022/08/31 08:34:08;;;;;;;5.73;3.03;;;20.40;98.00;;;;;;5061746;28;20464;-67
2022/08/31 08:36:39;;;;;;;4.40;3.10;;;20.60;98.00;;;;;;5062330;28;20448;-67
2022/08/31 08:39:10;;;;;;;6.40;3.30;;;20.50;98.00;;;;;;5063373;28;20545;-67
2022/08/31 08:41:38;;;;;;;4.43;3.10;;;20.40;98.00;;;;;;5062696;28;20480;-67
2022/08/31 08:44:11;;;;;;;3.83;2.60;;;20.40;98.00;;;;;;5052909;28;20457;-67
2022/08/31 08:46:47;;;;;;;5.70;3.30;;;20.50;98.00;;;;;;5061162;28;20494;-67
2022/08/31 08:49:22;;;;;;;4.00;3.00;;;20.50;98.00;;;;;;5051886;28;20459;-69
2022/08/31 08:51:54;;;;;;;8.00;3.90;;;20.50;98.00;;;;;;5044072;28;20488;-67
2022/08/31 08:54:32;;;;;;;4.20;2.93;;;20.50;98.00;;;;;;5045486;28;20492;-67
2022/08/31 08:57:07;;;;;;;5.93;3.10;;;20.50;98.00;;;;;;5038133;28;20457;-67
2022/08/31 08:59:35;;;;;;;6.13;3.60;;;20.60;98.00;;;;;;5062315;28;20825;-67
2022/08/31 09:02:07;;;;;;;5.93;3.37;;;20.50;98.00;;;;;;5046562;28;21021;-67
2022/08/31 09:04:58;;;;;;;3.83;2.63;;;20.50;98.00;;;;;;5056539;28;20465;-67
2022/08/31 09:07:45;;;;;;;3.43;2.90;;;20.60;98.00;;;;;;5065399;28;20534;-66
2022/08/31 09:10:21;;;;;;;6.67;3.50;;;20.70;98.00;;;;;;5052442;28;20501;-67
2022/08/31 09:12:58;;;;;;;5.50;3.00;;;20.80;98.00;;;;;;5016441;28;20458;-66
2022/08/31 09:15:41;;;;;;;6.13;3.67;;;20.70;98.00;;;;;;5033719;28;20480;-66
2022/08/31 09:18:27;;;;;;;5.67;3.33;;;20.80;98.00;;;;;;5033412;28;20860;-66
2022/08/31 09:21:10;;;;;;;5.70;3.00;;;21.00;98.00;;;;;;5033244;28;20470;-67
2022/08/31 09:23:48;;;;;;;5.50;3.40;;;20.90;98.00;;;;;;5033429;28;20508;-67
2022/08/31 09:26:18;;;;;;;4.40;3.03;;;20.90;98.00;;;;;;5033297;28;20540;-67
2022/08/31 09:28:49;;;;;;;4.20;2.90;;;20.80;98.00;;;;;;5033426;28;20466;-67
2022/08/31 09:31:36;;;;;;;6.53;3.43;;;20.80;98.00;;;;;;5033784;28;20486;-67
2022/08/31 09:34:08;;;;;;;5.83;3.43;;;20.90;98.00;;;;;;5016938;28;20560;-64
2022/08/31 09:36:39;;;;;;;4.73;3.33;;;20.90;98.00;;;;;;5033750;28;20485;-66
2022/08/31 09:39:31;;;;;;;5.03;2.93;;;20.80;98.00;;;;;;5033867;28;21025;-66
2022/08/31 09:42:11;;;;;;;5.33;3.33;;;20.80;98.00;;;;;;5014723;28;20473;-67
2022/08/31 09:44:41;;;;;;;4.83;3.30;;;20.90;98.00;;;;;;5034202;28;20469;-67
2022/08/31 09:47:44;;;;;;;4.37;2.83;;;21.10;98.00;;;;;;5033766;28;20455;-67
2022/08/31 09:50:30;;;;;;;4.10;2.70;;;21.40;98.00;;;;;;5033067;28;20557;-67
2022/08/31 09:56:18;;;;;;;5.03;3.10;;;21.90;98.00;;;;;;5018540;28;20578;-67
2022/08/31 09:58:49;;;;;;;5.17;2.90;;;22.00;98.00;;;;;;5033303;28;20458;-67
2022/08/31 10:01:28;;;;;;;4.40;3.00;;;22.10;98.00;;;;;;5033340;28;20519;-67
2022/08/31 10:04:11;;;;;;;4.60;3.00;;;22.00;98.00;;;;;;5033272;28;20466;-67
2022/08/31 10:06:48;;;;;;;4.77;2.90;;;22.20;98.00;;;;;;5033412;28;20467;-67
2022/08/31 10:09:27;;;;;;;3.83;2.90;;;22.20;98.00;;;;;;5032998;28;20466;-67
2022/08/31 10:12:03;;;;;;;7.03;3.33;;;22.30;98.00;;;;;;5033365;28;20516;-68
2022/08/31 10:14:37;;;;;;;5.03;3.20;;;22.40;98.00;;;;;;5016203;28;20482;-68
2022/08/31 10:17:10;;;;;;;3.90;2.70;;;22.40;98.00;;;;;;5032765;28;20462;-67
2022/08/31 10:19:52;;;;;;;5.13;3.57;;;22.30;98.00;;;;;;5033017;28;20952;-66
2022/08/31 10:22:26;;;;;;;4.60;2.80;;;22.20;98.00;;;;;;5032965;28;20451;-67
2022/08/31 10:25:05;;;;;;;6.53;3.47;;;22.30;98.00;;;;;;5033049;28;20461;-67
2022/08/31 10:27:39;;;;;;;5.37;3.17;;;22.30;98.00;;;;;;5032909;28;20466;-67
2022/08/31 10:30:11;;;;;;;6.43;3.47;;;22.30;98.00;;;;;;5032825;28;20968;-67
2022/08/31 10:32:45;;;;;;;5.20;3.17;;;22.50;98.00;;;;;;5032991;28;20497;-67
2022/08/31 10:35:18;;;;;;;5.47;2.97;;;22.50;98.00;;;;;;5032706;28;20459;-67
2022/08/31 10:38:08;;;;;;;7.73;3.53;;;22.80;98.00;;;;;;5032834;28;20557;-63
2022/08/31 10:40:44;;;;;;;5.90;3.77;;;23.00;98.00;;;;;;5032906;28;20581;-63
2022/08/31 10:43:20;;;;;;;5.50;3.57;;;23.10;98.00;;;;;;5032794;28;20465;-65
2022/08/31 10:45:51;;;;;;;5.40;3.43;;;23.30;98.00;;;;;;5032839;28;20538;-67
2022/08/31 10:48:21;;;;;;;5.47;3.50;;;23.40;98.00;;;;;;5014998;28;20455;-67
2022/08/31 10:50:56;;;;;;;6.97;4.07;;;23.50;98.00;;;;;;5032194;28;20490;-63
2022/08/31 10:53:35;;;;;;;7.10;3.67;;;23.50;98.00;;;;;;5032587;28;21120;-66
2022/08/31 10:56:11;;;;;;;4.90;3.20;;;23.50;98.00;;;;;;5032377;28;20514;-67
2022/08/31 10:58:50;;;;;;;6.33;3.87;;;23.70;98.00;;;;;;5032314;28;20458;-68
2022/08/31 11:01:23;;;;;;;6.37;3.33;;;23.70;98.00;;;;;;5032206;28;20458;-68
2022/08/31 11:04:17;;;;;;;5.30;3.43;;;23.80;98.00;;;;;;5032129;28;20462;-64
2022/08/31 11:06:55;;;;;;;5.90;3.53;;;23.90;98.00;;;;;;5032260;28;20462;-66
2022/08/31 11:09:31;;;;;;;4.67;2.80;;;24.00;98.00;;;;;;5032109;28;20458;-65
2022/08/31 11:12:03;;;;;;;6.40;3.20;;;24.00;98.00;;;;;;5031984;28;20486;-64
2022/08/31 11:15:08;;;;;;;4.60;3.40;;;23.90;98.00;;;;;;5031808;28;20462;-63
2022/08/31 11:18:09;;;;;;;5.57;3.07;;;23.70;98.00;;;;;;5031818;28;20466;-63
2022/08/31 11:20:50;;;;;;;6.67;3.30;;;23.40;98.00;;;;;;4991562;28;21056;-63
2022/08/31 11:23:55;;;;;;;7.73;3.90;;;23.40;98.00;;;;;;5031831;28;20462;-62
2022/08/31 11:26:50;;;;;;;4.17;2.87;;;23.20;98.00;;;;;;5031586;28;20469;-63
2022/08/31 11:29:31;;;;;;;7.30;3.50;;;23.10;98.00;;;;;;5013557;28;20466;-63
2022/08/31 11:32:07;;;;;;;5.60;3.20;;;22.90;98.00;;;;;;5031832;28;21015;-63
2022/08/31 11:34:46;;;;;;;7.30;3.80;;;22.90;98.00;;;;;;5031714;28;20473;-63
2022/08/31 11:37:33;;;;;;;5.80;3.70;;;22.70;98.00;;;;;;5032016;28;20455;-63
2022/08/31 11:40:00;;;;;;;5.53;3.10;;;22.60;98.00;;;;;;5031711;28;20462;-63
2022/08/31 11:43:00;;;;;;;5.03;3.13;;;22.50;98.00;;;;;;5032087;28;20458;-64
2022/08/31 11:45:31;;;;;;;5.40;3.40;;;22.50;98.00;;;;;;5031402;28;20459;-63
2022/08/31 11:48:00;;;;;;;5.30;3.13;;;22.50;98.00;;;;;;5031953;28;20455;-63
2022/08/31 11:51:02;;;;;;;5.53;3.10;;;22.50;98.00;;;;;;5031474;28;20497;-63
2022/08/31 11:53:39;;;;;;;6.60;3.73;;;22.50;98.00;;;;;;5031881;28;20469;-63
2022/08/31 11:56:08;;;;;;;3.80;2.73;;;22.50;98.00;;;;;;5031469;28;20462;-63
2022/08/31 11:58:41;;;;;;;5.77;3.03;;;22.50;98.00;;;;;;5031702;28;20462;-63
2022/08/31 12:01:33;;;;;;;5.67;3.20;;;22.50;98.00;;;;;;5031387;28;20473;-63
2022/08/31 12:04:04;;;;;;;5.10;3.23;;;22.50;98.00;;;;;;5031622;28;20462;-63
2022/08/31 12:06:59;;;;;;;5.77;3.07;;;22.50;98.00;;;;;;5031663;28;20466;-63
2022/08/31 12:10:17;;;;;;;5.40;2.90;;;22.50;98.00;;;;;;5031444;28;20474;-63
2022/08/31 12:13:02;;;;;;;5.60;3.07;;;22.50;98.00;;;;;;5031548;28;20459;-62
2022/08/31 12:15:45;;;;;;;5.90;3.50;;;22.50;98.00;;;;;;5031400;28;20969;-63
2022/08/31 12:18:29;;;;;;;8.70;3.83;;;22.40;98.00;;;;;;5014007;28;20845;-63
2022/08/31 12:24:02;;;;;;;10.90;3.77;;;22.80;98.00;;;;;;5031574;28;20539;-64
2022/08/31 12:26:52;;;;;;;6.33;3.03;;;22.90;98.00;;;;;;5031265;28;20500;-62
2022/08/31 12:29:26;;;;;;;7.70;3.83;;;23.00;98.00;;;;;;5031486;28;20956;-64
2022/08/31 12:32:17;;;;;;;5.80;3.37;;;22.80;98.00;;;;;;5031397;28;20494;-63
2022/08/31 12:34:49;;;;;;;7.80;3.43;;;22.80;98.00;;;;;;5031349;28;20472;-63
2022/08/31 12:37:26;;;;;;;5.50;3.37;;;22.70;98.00;;;;;;5031614;28;20498;-62
2022/08/31 12:40:20;;;;;;;7.67;3.77;;;22.70;98.00;;;;;;5032495;28;20489;-63
2022/08/31 12:43:09;;;;;;;5.33;3.97;;;22.70;98.00;;;;;;5035243;28;20466;-63
2022/08/31 12:45:57;;;;;;;7.27;3.83;;;23.10;98.00;;;;;;5029715;28;20830;-63
2022/08/31 12:48:59;;;;;;;4.80;3.23;;;23.30;98.00;;;;;;5034993;28;20470;-62
2022/08/31 12:51:39;;;;;;;6.10;3.33;;;23.90;98.00;;;;;;4966311;28;20540;-63
2022/08/31 12:54:46;;;;;;;8.27;4.13;;;24.50;98.00;;;;;;5034546;28;20462;-63
2022/08/31 12:57:29;;;;;;;5.30;3.50;;;24.70;97.10;;;;;;5023655;28;20464;-63
2022/08/31 13:00:02;;;;;;;6.67;3.93;;;24.40;97.50;;;;;;5034570;28;20465;-63
2022/08/31 13:02:32;;;;;;;4.97;3.20;;;24.20;98.00;;;;;;5034670;28;20463;-63
2022/08/31 13:05:01;;;;;;;6.20;3.77;;;24.40;98.00;;;;;;5034278;28;20458;-63
2022/08/31 13:07:32;;;;;;;7.73;3.80;;;24.20;98.00;;;;;;5034354;28;20953;-63
2022/08/31 13:10:05;;;;;;;8.27;4.40;;;24.80;97.80;;;;;;5034426;28;20455;-63
2022/08/31 13:12:39;;;;;;;7.80;4.20;;;25.40;95.40;;;;;;5034239;28;20490;-63
2022/08/31 13:15:10;;;;;;;6.20;3.20;;;26.10;93.80;;;;;;5034252;28;20450;-63
2022/08/31 13:17:39;;;;;;;6.63;3.90;;;26.70;92.80;;;;;;5034364;28;20933;-63
2022/08/31 13:20:08;;;;;;;6.07;4.00;;;27.10;91.30;;;;;;5034263;28;20474;-67
2022/08/31 13:22:40;;;;;;;6.07;3.70;;;27.30;90.80;;;;;;5034352;28;20463;-68
2022/08/31 13:25:15;;;;;;;6.20;4.03;;;27.60;89.40;;;;;;5034107;28;20549;-67
2022/08/31 13:27:48;;;;;;;5.43;3.40;;;28.00;89.60;;;;;;5034144;28;20453;-66
2022/08/31 13:30:19;;;;;;;7.77;4.20;;;28.40;88.20;;;;;;5034105;28;20469;-68
2022/08/31 13:32:53;;;;;;;5.23;3.60;;;28.70;86.80;;;;;;5034004;28;20490;-66
2022/08/31 13:35:25;;;;;;;5.70;3.87;;;28.90;88.30;;;;;;5034169;28;20948;-63
2022/08/31 13:38:02;;;;;;;5.10;3.63;;;29.00;85.20;;;;;;5034035;28;20455;-63